sensor_id;sensor_type;location;lat;lon;timestamp;P1;durP1;ratioP1;P2;durP2;ratioP2
59998;SDS011;45859;51.378;6.736;2023-02-10T00:01:38;40.25;;;17.85;;
59998;SDS011;45859;51.378;6.736;2023-02-10T00:04:04;46.67;;;18.67;;
59998;SDS011;45859;51.378;6.736;2023-02-10T00:06:30;38.43;;;14.77;;
59998;SDS011;45859;51.378;6.736;2023-02-10T00:08:57;46.80;;;16.00;;
59998;SDS011;45859;51.378;6.736;2023-02-10T00:11:24;37.97;;;16.37;;
59998;SDS011;45859;51.378;6.736;2023-02-10T00:14:10;37.10;;;15.97;;
59998;SDS011;45859;51.378;6.736;2023-02-10T00:16:37;36.90;;;14.13;;
59998;SDS011;45859;51.378;6.736;2023-02-10T00:19:02;45.60;;;16.33;;
59998;SDS011;45859;51.378;6.736;2023-02-10T00:21:28;39.53;;;16.27;;
59998;SDS011;45859;51.378;6.736;2023-02-10T00:23:54;44.30;;;16.13;;
59998;SDS011;45859;51.378;6.736;2023-02-10T00:26:19;24.77;;;12.07;;
59998;SDS011;45859;51.378;6.736;2023-02-10T00:28:45;39.30;;;17.30;;
59998;SDS011;45859;51.378;6.736;2023-02-10T00:31:12;40.00;;;16.47;;
59998;SDS011;45859;51.378;6.736;2023-02-10T00:33:40;38.30;;;16.37;;
59998;SDS011;45859;51.378;6.736;2023-02-10T00:36:10;48.20;;;18.70;;
59998;SDS011;45859;51.378;6.736;2023-02-10T00:38:38;40.97;;;16.60;;
59998;SDS011;45859;51.378;6.736;2023-02-10T00:41:08;38.13;;;16.17;;
59998;SDS011;45859;51.378;6.736;2023-02-10T00:43:42;46.87;;;18.67;;
59998;SDS011;45859;51.378;6.736;2023-02-10T00:46:09;42.00;;;18.07;;
59998;SDS011;45859;51.378;6.736;2023-02-10T00:48:39;42.38;;;15.38;;
59998;SDS011;45859;51.378;6.736;2023-02-10T00:51:05;32.07;;;13.10;;
59998;SDS011;45859;51.378;6.736;2023-02-10T00:53:31;36.57;;;16.80;;
59998;SDS011;45859;51.378;6.736;2023-02-10T00:55:57;34.43;;;16.53;;
59998;SDS011;45859;51.378;6.736;2023-02-10T00:58:23;42.00;;;17.10;;
59998;SDS011;45859;51.378;6.736;2023-02-10T01:00:49;33.27;;;15.60;;
59998;SDS011;45859;51.378;6.736;2023-02-10T01:03:15;32.70;;;13.63;;
59998;SDS011;45859;51.378;6.736;2023-02-10T01:05:40;42.43;;;19.53;;
59998;SDS011;45859;51.378;6.736;2023-02-10T01:08:06;45.30;;;16.00;;
59998;SDS011;45859;51.378;6.736;2023-02-10T01:10:33;40.93;;;17.53;;
59998;SDS011;45859;51.378;6.736;2023-02-10T01:13:00;35.87;;;16.67;;
59998;SDS011;45859;51.378;6.736;2023-02-10T01:15:26;37.53;;;15.83;;
59998;SDS011;45859;51.378;6.736;2023-02-10T01:17:52;40.87;;;16.70;;
59998;SDS011;45859;51.378;6.736;2023-02-10T01:20:18;29.70;;;12.17;;
59998;SDS011;45859;51.378;6.736;2023-02-10T01:22:43;29.43;;;12.50;;
59998;SDS011;45859;51.378;6.736;2023-02-10T01:25:09;43.97;;;17.53;;
59998;SDS011;45859;51.378;6.736;2023-02-10T01:27:35;38.87;;;15.93;;
59998;SDS011;45859;51.378;6.736;2023-02-10T01:30:00;33.70;;;15.97;;
59998;SDS011;45859;51.378;6.736;2023-02-10T01:32:27;42.83;;;17.20;;
59998;SDS011;45859;51.378;6.736;2023-02-10T01:34:53;42.13;;;15.10;;
59998;SDS011;45859;51.378;6.736;2023-02-10T01:37:18;37.93;;;15.90;;
59998;SDS011;45859;51.378;6.736;2023-02-10T01:39:44;43.40;;;16.83;;
59998;SDS011;45859;51.378;6.736;2023-02-10T01:42:13;42.27;;;17.83;;
59998;SDS011;45859;51.378;6.736;2023-02-10T01:47:05;42.70;;;19.00;;
59998;SDS011;45859;51.378;6.736;2023-02-10T01:49:32;47.80;;;18.90;;
59998;SDS011;45859;51.378;6.736;2023-02-10T01:52:06;42.57;;;15.47;;
59998;SDS011;45859;51.378;6.736;2023-02-10T01:54:41;35.07;;;16.10;;
59998;SDS011;45859;51.378;6.736;2023-02-10T01:57:12;44.43;;;18.40;;
59998;SDS011;45859;51.378;6.736;2023-02-10T01:59:38;37.50;;;17.57;;
59998;SDS011;45859;51.378;6.736;2023-02-10T02:02:06;37.10;;;15.50;;
59998;SDS011;45859;51.378;6.736;2023-02-10T02:04:37;38.93;;;17.20;;
59998;SDS011;45859;51.378;6.736;2023-02-10T02:07:07;35.33;;;17.30;;
59998;SDS011;45859;51.378;6.736;2023-02-10T02:09:33;46.87;;;18.57;;
59998;SDS011;45859;51.378;6.736;2023-02-10T02:14:49;41.83;;;18.27;;
59998;SDS011;45859;51.378;6.736;2023-02-10T02:20:21;46.43;;;19.57;;
59998;SDS011;45859;51.378;6.736;2023-02-10T02:39:40;48.97;;;20.77;;
59998;SDS011;45859;51.378;6.736;2023-02-10T02:44:38;51.03;;;19.87;;
59998;SDS011;45859;51.378;6.736;2023-02-10T02:47:14;39.70;;;17.33;;
59998;SDS011;45859;51.378;6.736;2023-02-10T02:49:53;45.83;;;19.07;;
59998;SDS011;45859;51.378;6.736;2023-02-10T02:56:00;48.37;;;18.77;;
59998;SDS011;45859;51.378;6.736;2023-02-10T03:01:15;42.73;;;20.00;;
59998;SDS011;45859;51.378;6.736;2023-02-10T03:03:49;51.20;;;19.60;;
59998;SDS011;45859;51.378;6.736;2023-02-10T03:06:18;49.53;;;20.20;;
59998;SDS011;45859;51.378;6.736;2023-02-10T03:08:43;41.90;;;18.03;;
59998;SDS011;45859;51.378;6.736;2023-02-10T03:11:09;40.93;;;18.97;;
59998;SDS011;45859;51.378;6.736;2023-02-10T03:13:35;35.87;;;17.03;;
59998;SDS011;45859;51.378;6.736;2023-02-10T03:16:00;45.13;;;19.87;;
59998;SDS011;45859;51.378;6.736;2023-02-10T03:18:27;42.60;;;18.93;;
59998;SDS011;45859;51.378;6.736;2023-02-10T03:20:53;30.60;;;14.80;;
59998;SDS011;45859;51.378;6.736;2023-02-10T03:23:18;44.53;;;19.27;;
59998;SDS011;45859;51.378;6.736;2023-02-10T03:25:44;34.57;;;14.73;;
59998;SDS011;45859;51.378;6.736;2023-02-10T03:28:10;34.40;;;14.73;;
59998;SDS011;45859;51.378;6.736;2023-02-10T03:30:36;34.87;;;16.47;;
59998;SDS011;45859;51.378;6.736;2023-02-10T03:33:02;23.13;;;12.07;;
59998;SDS011;45859;51.378;6.736;2023-02-10T03:35:28;28.30;;;12.97;;
59998;SDS011;45859;51.378;6.736;2023-02-10T03:37:53;33.10;;;13.77;;
59998;SDS011;45859;51.378;6.736;2023-02-10T03:40:19;40.67;;;17.63;;
59998;SDS011;45859;51.378;6.736;2023-02-10T03:42:44;33.60;;;16.17;;
59998;SDS011;45859;51.378;6.736;2023-02-10T03:45:10;39.10;;;16.90;;
59998;SDS011;45859;51.378;6.736;2023-02-10T03:47:36;42.23;;;18.10;;
59998;SDS011;45859;51.378;6.736;2023-02-10T03:50:01;46.73;;;18.67;;
59998;SDS011;45859;51.378;6.736;2023-02-10T03:52:27;42.40;;;18.17;;
59998;SDS011;45859;51.378;6.736;2023-02-10T03:54:52;46.03;;;18.87;;
59998;SDS011;45859;51.378;6.736;2023-02-10T03:57:18;44.93;;;18.67;;
59998;SDS011;45859;51.378;6.736;2023-02-10T03:59:44;41.87;;;19.77;;
59998;SDS011;45859;51.378;6.736;2023-02-10T04:02:09;43.10;;;19.03;;
59998;SDS011;45859;51.378;6.736;2023-02-10T04:04:35;49.67;;;20.70;;
59998;SDS011;45859;51.378;6.736;2023-02-10T04:07:02;54.50;;;20.80;;
59998;SDS011;45859;51.378;6.736;2023-02-10T04:09:28;45.73;;;18.13;;
59998;SDS011;45859;51.378;6.736;2023-02-10T04:11:54;45.73;;;19.60;;
59998;SDS011;45859;51.378;6.736;2023-02-10T04:14:20;41.83;;;19.07;;
59998;SDS011;45859;51.378;6.736;2023-02-10T04:16:45;45.90;;;20.17;;
59998;SDS011;45859;51.378;6.736;2023-02-10T04:19:11;45.57;;;19.33;;
59998;SDS011;45859;51.378;6.736;2023-02-10T04:21:36;36.97;;;16.20;;
59998;SDS011;45859;51.378;6.736;2023-02-10T04:24:02;49.97;;;21.93;;
59998;SDS011;45859;51.378;6.736;2023-02-10T04:26:28;54.03;;;21.60;;
59998;SDS011;45859;51.378;6.736;2023-02-10T04:28:53;43.07;;;18.83;;
59998;SDS011;45859;51.378;6.736;2023-02-10T04:31:19;33.27;;;16.10;;
59998;SDS011;45859;51.378;6.736;2023-02-10T04:33:45;48.17;;;20.10;;
59998;SDS011;45859;51.378;6.736;2023-02-10T04:36:10;42.27;;;16.27;;
59998;SDS011;45859;51.378;6.736;2023-02-10T04:38:36;37.30;;;16.23;;
59998;SDS011;45859;51.378;6.736;2023-02-10T04:41:02;41.77;;;17.17;;
59998;SDS011;45859;51.378;6.736;2023-02-10T04:43:30;46.07;;;20.33;;
59998;SDS011;45859;51.378;6.736;2023-02-10T04:45:57;32.27;;;16.50;;
59998;SDS011;45859;51.378;6.736;2023-02-10T04:48:22;38.57;;;16.97;;
59998;SDS011;45859;51.378;6.736;2023-02-10T04:50:48;34.63;;;16.53;;
59998;SDS011;45859;51.378;6.736;2023-02-10T04:53:14;34.80;;;15.53;;
59998;SDS011;45859;51.378;6.736;2023-02-10T04:55:39;51.77;;;18.27;;
59998;SDS011;45859;51.378;6.736;2023-02-10T04:58:05;23.77;;;10.07;;
59998;SDS011;45859;51.378;6.736;2023-02-10T05:00:31;33.63;;;15.87;;
59998;SDS011;45859;51.378;6.736;2023-02-10T05:02:57;35.20;;;15.67;;
59998;SDS011;45859;51.378;6.736;2023-02-10T05:05:23;32.80;;;16.03;;
59998;SDS011;45859;51.378;6.736;2023-02-10T05:07:50;37.27;;;15.67;;
59998;SDS011;45859;51.378;6.736;2023-02-10T05:10:16;40.07;;;19.83;;
59998;SDS011;45859;51.378;6.736;2023-02-10T05:12:42;38.00;;;16.73;;
59998;SDS011;45859;51.378;6.736;2023-02-10T05:15:08;20.47;;;7.37;;
59998;SDS011;45859;51.378;6.736;2023-02-10T05:17:34;44.63;;;17.80;;
59998;SDS011;45859;51.378;6.736;2023-02-10T05:19:59;52.37;;;18.97;;
59998;SDS011;45859;51.378;6.736;2023-02-10T05:22:25;29.03;;;13.33;;
59998;SDS011;45859;51.378;6.736;2023-02-10T05:24:54;41.57;;;16.47;;
59998;SDS011;45859;51.378;6.736;2023-02-10T05:27:21;37.17;;;14.80;;
59998;SDS011;45859;51.378;6.736;2023-02-10T05:29:48;25.30;;;12.90;;
59998;SDS011;45859;51.378;6.736;2023-02-10T05:32:14;46.77;;;19.03;;
59998;SDS011;45859;51.378;6.736;2023-02-10T05:34:39;35.40;;;14.97;;
59998;SDS011;45859;51.378;6.736;2023-02-10T05:37:05;38.03;;;16.37;;
59998;SDS011;45859;51.378;6.736;2023-02-10T05:39:30;27.93;;;12.90;;
59998;SDS011;45859;51.378;6.736;2023-02-10T05:41:57;41.97;;;17.20;;
59998;SDS011;45859;51.378;6.736;2023-02-10T05:44:24;31.53;;;15.27;;
59998;SDS011;45859;51.378;6.736;2023-02-10T05:46:50;51.17;;;19.53;;
59998;SDS011;45859;51.378;6.736;2023-02-10T05:49:16;36.27;;;15.60;;
59998;SDS011;45859;51.378;6.736;2023-02-10T05:51:43;37.70;;;16.13;;
59998;SDS011;45859;51.378;6.736;2023-02-10T05:54:08;50.23;;;21.57;;
59998;SDS011;45859;51.378;6.736;2023-02-10T05:56:34;45.57;;;20.30;;
59998;SDS011;45859;51.378;6.736;2023-02-10T05:59:00;50.87;;;21.30;;
59998;SDS011;45859;51.378;6.736;2023-02-10T06:01:26;51.47;;;20.73;;
59998;SDS011;45859;51.378;6.736;2023-02-10T06:03:52;43.17;;;18.30;;
59998;SDS011;45859;51.378;6.736;2023-02-10T06:06:18;57.60;;;22.10;;
59998;SDS011;45859;51.378;6.736;2023-02-10T06:08:43;46.47;;;20.03;;
59998;SDS011;45859;51.378;6.736;2023-02-10T06:11:09;47.30;;;18.53;;
59998;SDS011;45859;51.378;6.736;2023-02-10T06:13:35;54.87;;;20.97;;
59998;SDS011;45859;51.378;6.736;2023-02-10T06:16:01;44.63;;;17.00;;
59998;SDS011;45859;51.378;6.736;2023-02-10T06:18:27;39.93;;;15.67;;
59998;SDS011;45859;51.378;6.736;2023-02-10T06:20:53;30.80;;;13.80;;
59998;SDS011;45859;51.378;6.736;2023-02-10T06:23:19;37.47;;;14.23;;
59998;SDS011;45859;51.378;6.736;2023-02-10T06:25:45;30.70;;;10.90;;
59998;SDS011;45859;51.378;6.736;2023-02-10T06:28:11;35.23;;;16.30;;
59998;SDS011;45859;51.378;6.736;2023-02-10T06:30:37;42.47;;;16.53;;
59998;SDS011;45859;51.378;6.736;2023-02-10T06:33:03;39.77;;;18.17;;
59998;SDS011;45859;51.378;6.736;2023-02-10T06:35:28;49.93;;;19.40;;
59998;SDS011;45859;51.378;6.736;2023-02-10T06:37:54;45.43;;;19.97;;
59998;SDS011;45859;51.378;6.736;2023-02-10T06:40:19;48.03;;;19.70;;
59998;SDS011;45859;51.378;6.736;2023-02-10T06:42:45;50.43;;;19.13;;
59998;SDS011;45859;51.378;6.736;2023-02-10T06:45:12;49.90;;;20.17;;
59998;SDS011;45859;51.378;6.736;2023-02-10T06:47:37;46.00;;;18.87;;
59998;SDS011;45859;51.378;6.736;2023-02-10T06:50:03;45.57;;;19.67;;
59998;SDS011;45859;51.378;6.736;2023-02-10T06:52:29;45.47;;;18.50;;
59998;SDS011;45859;51.378;6.736;2023-02-10T06:54:56;49.90;;;18.27;;
59998;SDS011;45859;51.378;6.736;2023-02-10T06:57:22;38.63;;;14.73;;
59998;SDS011;45859;51.378;6.736;2023-02-10T06:59:48;22.50;;;8.70;;
59998;SDS011;45859;51.378;6.736;2023-02-10T07:02:13;38.87;;;16.77;;
59998;SDS011;45859;51.378;6.736;2023-02-10T07:04:39;15.30;;;8.13;;
59998;SDS011;45859;51.378;6.736;2023-02-10T07:07:05;41.30;;;16.67;;
59998;SDS011;45859;51.378;6.736;2023-02-10T07:09:31;37.30;;;14.43;;
59998;SDS011;45859;51.378;6.736;2023-02-10T07:11:57;26.80;;;12.77;;
59998;SDS011;45859;51.378;6.736;2023-02-10T07:14:23;42.27;;;17.40;;
59998;SDS011;45859;51.378;6.736;2023-02-10T07:16:48;32.73;;;13.20;;
59998;SDS011;45859;51.378;6.736;2023-02-10T07:19:14;32.87;;;14.17;;
59998;SDS011;45859;51.378;6.736;2023-02-10T07:21:40;56.80;;;20.77;;
59998;SDS011;45859;51.378;6.736;2023-02-10T07:24:05;29.10;;;10.47;;
59998;SDS011;45859;51.378;6.736;2023-02-10T07:26:31;36.77;;;15.67;;
59998;SDS011;45859;51.378;6.736;2023-02-10T07:28:57;25.00;;;13.87;;
59998;SDS011;45859;51.378;6.736;2023-02-10T07:31:22;36.93;;;15.80;;
59998;SDS011;45859;51.378;6.736;2023-02-10T07:33:48;46.43;;;17.67;;
59998;SDS011;45859;51.378;6.736;2023-02-10T07:36:14;47.87;;;18.87;;
59998;SDS011;45859;51.378;6.736;2023-02-10T07:38:39;44.57;;;17.60;;
59998;SDS011;45859;51.378;6.736;2023-02-10T07:41:07;50.27;;;20.17;;
59998;SDS011;45859;51.378;6.736;2023-02-10T07:43:33;50.50;;;21.07;;
59998;SDS011;45859;51.378;6.736;2023-02-10T07:45:59;43.60;;;19.00;;
59998;SDS011;45859;51.378;6.736;2023-02-10T07:48:25;41.93;;;16.57;;
59998;SDS011;45859;51.378;6.736;2023-02-10T07:50:51;42.03;;;16.80;;
59998;SDS011;45859;51.378;6.736;2023-02-10T07:53:17;47.63;;;18.87;;
59998;SDS011;45859;51.378;6.736;2023-02-10T07:55:44;42.13;;;16.87;;
59998;SDS011;45859;51.378;6.736;2023-02-10T07:58:09;38.50;;;16.40;;
59998;SDS011;45859;51.378;6.736;2023-02-10T08:00:35;46.77;;;18.20;;
59998;SDS011;45859;51.378;6.736;2023-02-10T08:03:01;39.90;;;17.13;;
59998;SDS011;45859;51.378;6.736;2023-02-10T08:05:26;40.80;;;16.70;;
59998;SDS011;45859;51.378;6.736;2023-02-10T08:07:53;38.23;;;15.53;;
59998;SDS011;45859;51.378;6.736;2023-02-10T08:10:19;58.83;;;20.93;;
59998;SDS011;45859;51.378;6.736;2023-02-10T08:12:45;40.97;;;17.07;;
59998;SDS011;45859;51.378;6.736;2023-02-10T08:15:11;30.70;;;15.27;;
59998;SDS011;45859;51.378;6.736;2023-02-10T08:17:37;36.97;;;16.10;;
59998;SDS011;45859;51.378;6.736;2023-02-10T08:20:04;38.70;;;16.77;;
59998;SDS011;45859;51.378;6.736;2023-02-10T08:22:30;43.40;;;16.63;;
59998;SDS011;45859;51.378;6.736;2023-02-10T08:24:56;26.90;;;11.03;;
59998;SDS011;45859;51.378;6.736;2023-02-10T08:27:21;29.43;;;12.47;;
59998;SDS011;45859;51.378;6.736;2023-02-10T08:29:47;25.23;;;12.47;;
59998;SDS011;45859;51.378;6.736;2023-02-10T08:32:12;22.27;;;10.13;;
59998;SDS011;45859;51.378;6.736;2023-02-10T08:34:43;27.93;;;12.50;;
59998;SDS011;45859;51.378;6.736;2023-02-10T08:37:10;31.00;;;13.07;;
59998;SDS011;45859;51.378;6.736;2023-02-10T08:39:36;26.00;;;10.57;;
59998;SDS011;45859;51.378;6.736;2023-02-10T08:42:01;25.70;;;11.13;;
59998;SDS011;45859;51.378;6.736;2023-02-10T08:44:27;29.43;;;11.73;;
59998;SDS011;45859;51.378;6.736;2023-02-10T08:46:53;36.73;;;15.47;;
59998;SDS011;45859;51.378;6.736;2023-02-10T08:49:19;32.73;;;13.10;;
59998;SDS011;45859;51.378;6.736;2023-02-10T08:51:44;23.63;;;12.67;;
59998;SDS011;45859;51.378;6.736;2023-02-10T08:54:10;23.87;;;11.90;;
59998;SDS011;45859;51.378;6.736;2023-02-10T08:56:35;35.00;;;14.63;;
59998;SDS011;45859;51.378;6.736;2023-02-10T08:59:01;24.67;;;12.07;;
59998;SDS011;45859;51.378;6.736;2023-02-10T09:01:27;32.27;;;15.97;;
59998;SDS011;45859;51.378;6.736;2023-02-10T09:03:53;36.37;;;17.03;;
59998;SDS011;45859;51.378;6.736;2023-02-10T09:06:41;31.47;;;14.07;;
59998;SDS011;45859;51.378;6.736;2023-02-10T09:09:08;40.60;;;15.00;;
59998;SDS011;45859;51.378;6.736;2023-02-10T09:11:44;44.67;;;17.60;;
59998;SDS011;45859;51.378;6.736;2023-02-10T09:14:11;35.73;;;15.73;;
59998;SDS011;45859;51.378;6.736;2023-02-10T09:16:36;46.47;;;19.40;;
59998;SDS011;45859;51.378;6.736;2023-02-10T09:19:02;45.03;;;17.53;;
59998;SDS011;45859;51.378;6.736;2023-02-10T09:21:29;45.63;;;20.53;;
59998;SDS011;45859;51.378;6.736;2023-02-10T09:23:55;33.00;;;16.83;;
59998;SDS011;45859;51.378;6.736;2023-02-10T09:26:21;41.50;;;18.33;;
59998;SDS011;45859;51.378;6.736;2023-02-10T09:28:46;29.07;;;14.77;;
59998;SDS011;45859;51.378;6.736;2023-02-10T09:31:13;43.30;;;19.37;;
59998;SDS011;45859;51.378;6.736;2023-02-10T09:33:41;51.50;;;17.83;;
59998;SDS011;45859;51.378;6.736;2023-02-10T09:36:08;47.80;;;21.33;;
59998;SDS011;45859;51.378;6.736;2023-02-10T09:43:47;50.40;;;21.07;;
59998;SDS011;45859;51.378;6.736;2023-02-10T09:54:59;47.15;;;20.08;;
59998;SDS011;45859;51.378;6.736;2023-02-10T09:58:00;49.90;;;19.33;;
59998;SDS011;45859;51.378;6.736;2023-02-10T10:00:26;37.63;;;15.97;;
59998;SDS011;45859;51.378;6.736;2023-02-10T10:02:59;30.73;;;14.60;;
59998;SDS011;45859;51.378;6.736;2023-02-10T10:05:36;40.30;;;16.97;;
59998;SDS011;45859;51.378;6.736;2023-02-10T10:08:24;42.60;;;16.80;;
59998;SDS011;45859;51.378;6.736;2023-02-10T10:11:19;35.37;;;14.33;;
59998;SDS011;45859;51.378;6.736;2023-02-10T10:13:59;25.60;;;11.73;;
59998;SDS011;45859;51.378;6.736;2023-02-10T10:19:26;28.43;;;12.93;;
59998;SDS011;45859;51.378;6.736;2023-02-10T10:27:38;31.70;;;13.73;;
59998;SDS011;45859;51.378;6.736;2023-02-10T10:30:30;30.07;;;13.53;;
59998;SDS011;45859;51.378;6.736;2023-02-10T10:33:33;29.50;;;12.67;;
59998;SDS011;45859;51.378;6.736;2023-02-10T10:36:15;32.30;;;14.07;;
59998;SDS011;45859;51.378;6.736;2023-02-10T10:38:53;30.47;;;12.60;;
59998;SDS011;45859;51.378;6.736;2023-02-10T10:41:23;33.97;;;13.93;;
59998;SDS011;45859;51.378;6.736;2023-02-10T10:43:55;34.27;;;13.03;;
59998;SDS011;45859;51.378;6.736;2023-02-10T10:49:10;36.20;;;15.70;;
59998;SDS011;45859;51.378;6.736;2023-02-10T10:51:36;31.47;;;14.53;;
59998;SDS011;45859;51.378;6.736;2023-02-10T10:54:04;39.57;;;16.30;;
59998;SDS011;45859;51.378;6.736;2023-02-10T10:56:38;28.37;;;12.40;;
59998;SDS011;45859;51.378;6.736;2023-02-10T10:59:18;26.17;;;13.77;;
59998;SDS011;45859;51.378;6.736;2023-02-10T11:02:16;30.17;;;11.47;;
59998;SDS011;45859;51.378;6.736;2023-02-10T11:04:43;34.60;;;13.73;;
59998;SDS011;45859;51.378;6.736;2023-02-10T11:07:11;32.23;;;14.50;;
59998;SDS011;45859;51.378;6.736;2023-02-10T11:09:48;34.23;;;13.73;;
59998;SDS011;45859;51.378;6.736;2023-02-10T11:14:49;32.73;;;13.60;;
59998;SDS011;45859;51.378;6.736;2023-02-10T11:22:36;27.20;;;12.93;;
59998;SDS011;45859;51.378;6.736;2023-02-10T11:25:03;55.47;;;35.43;;
59998;SDS011;45859;51.378;6.736;2023-02-10T11:28:04;25.23;;;8.85;;
59998;SDS011;45859;51.378;6.736;2023-02-10T11:30:33;22.30;;;9.40;;
59998;SDS011;45859;51.378;6.736;2023-02-10T11:33:04;30.63;;;11.90;;
59998;SDS011;45859;51.378;6.736;2023-02-10T11:35:32;55.20;;;32.60;;
59998;SDS011;45859;51.378;6.736;2023-02-10T11:38:00;37.47;;;16.00;;
59998;SDS011;45859;51.378;6.736;2023-02-10T11:40:30;51.17;;;31.83;;
59998;SDS011;45859;51.378;6.736;2023-02-10T11:43:12;46.13;;;29.33;;
59998;SDS011;45859;51.378;6.736;2023-02-10T11:45:50;43.27;;;29.17;;
59998;SDS011;45859;51.378;6.736;2023-02-10T11:48:18;21.47;;;9.53;;
59998;SDS011;45859;51.378;6.736;2023-02-10T11:50:46;20.23;;;9.93;;
59998;SDS011;45859;51.378;6.736;2023-02-10T11:53:21;25.57;;;9.37;;
59998;SDS011;45859;51.378;6.736;2023-02-10T11:58:44;26.33;;;10.93;;
59998;SDS011;45859;51.378;6.736;2023-02-10T12:06:46;30.77;;;13.50;;
59998;SDS011;45859;51.378;6.736;2023-02-10T12:25:44;22.10;;;8.47;;
59998;SDS011;45859;51.378;6.736;2023-02-10T12:39:32;35.23;;;23.33;;
59998;SDS011;45859;51.378;6.736;2023-02-10T12:45:11;36.70;;;22.70;;
59998;SDS011;45859;51.378;6.736;2023-02-10T12:50:16;31.47;;;20.43;;
59998;SDS011;45859;51.378;6.736;2023-02-10T12:52:57;16.03;;;6.10;;
59998;SDS011;45859;51.378;6.736;2023-02-10T12:58:15;14.70;;;7.40;;
59998;SDS011;45859;51.378;6.736;2023-02-10T13:00:50;22.23;;;8.40;;
59998;SDS011;45859;51.378;6.736;2023-02-10T13:03:26;14.85;;;7.32;;
59998;SDS011;45859;51.378;6.736;2023-02-10T13:05:59;18.43;;;7.80;;
59998;SDS011;45859;51.378;6.736;2023-02-10T13:08:51;22.93;;;9.20;;
59998;SDS011;45859;51.378;6.736;2023-02-10T13:14:20;22.67;;;8.87;;
59998;SDS011;45859;51.378;6.736;2023-02-10T13:16:53;20.03;;;8.10;;
59998;SDS011;45859;51.378;6.736;2023-02-10T13:19:36;26.97;;;10.13;;
59998;SDS011;45859;51.378;6.736;2023-02-10T13:27:49;19.97;;;9.33;;
59998;SDS011;45859;51.378;6.736;2023-02-10T13:36:26;26.93;;;11.17;;
59998;SDS011;45859;51.378;6.736;2023-02-10T13:39:03;17.95;;;8.85;;
59998;SDS011;45859;51.378;6.736;2023-02-10T13:41:38;33.03;;;13.23;;
59998;SDS011;45859;51.378;6.736;2023-02-10T13:46:56;39.00;;;24.37;;
59998;SDS011;45859;51.378;6.736;2023-02-10T13:49:52;36.90;;;23.30;;
59998;SDS011;45859;51.378;6.736;2023-02-10T13:52:22;40.03;;;24.63;;
59998;SDS011;45859;51.378;6.736;2023-02-10T13:54:57;40.40;;;23.93;;
59998;SDS011;45859;51.378;6.736;2023-02-10T13:57:27;39.47;;;25.50;;
59998;SDS011;45859;51.378;6.736;2023-02-10T14:02:39;32.13;;;12.60;;
59998;SDS011;45859;51.378;6.736;2023-02-10T14:05:20;31.63;;;11.00;;
59998;SDS011;45859;51.378;6.736;2023-02-10T14:07:49;22.37;;;9.90;;
59998;SDS011;45859;51.378;6.736;2023-02-10T14:15:22;37.20;;;24.60;;
59998;SDS011;45859;51.378;6.736;2023-02-10T14:18:04;39.43;;;23.87;;
59998;SDS011;45859;51.378;6.736;2023-02-10T14:20:46;30.07;;;20.13;;
59998;SDS011;45859;51.378;6.736;2023-02-10T14:23:19;28.80;;;20.33;;
59998;SDS011;45859;51.378;6.736;2023-02-10T14:25:53;27.77;;;11.20;;
59998;SDS011;45859;51.378;6.736;2023-02-10T14:28:27;36.93;;;23.80;;
59998;SDS011;45859;51.378;6.736;2023-02-10T14:30:59;30.67;;;12.37;;
59998;SDS011;45859;51.378;6.736;2023-02-10T14:33:32;37.23;;;25.53;;
59998;SDS011;45859;51.378;6.736;2023-02-10T14:36:00;33.57;;;23.40;;
59998;SDS011;45859;51.378;6.736;2023-02-10T14:38:28;34.37;;;23.50;;
59998;SDS011;45859;51.378;6.736;2023-02-10T14:40:59;31.03;;;22.93;;
59998;SDS011;45859;51.378;6.736;2023-02-10T14:43:27;24.63;;;10.40;;
59998;SDS011;45859;51.378;6.736;2023-02-10T14:45:56;29.00;;;20.70;;
59998;SDS011;45859;51.378;6.736;2023-02-10T14:48:23;27.67;;;20.60;;
59998;SDS011;45859;51.378;6.736;2023-02-10T14:50:58;25.27;;;20.23;;
59998;SDS011;45859;51.378;6.736;2023-02-10T14:53:25;19.47;;;8.57;;
59998;SDS011;45859;51.378;6.736;2023-02-10T14:55:55;22.03;;;10.47;;
59998;SDS011;45859;51.378;6.736;2023-02-10T14:58:22;21.83;;;10.37;;
59998;SDS011;45859;51.378;6.736;2023-02-10T15:03:30;28.33;;;11.50;;
59998;SDS011;45859;51.378;6.736;2023-02-10T15:05:57;22.03;;;11.27;;
59998;SDS011;45859;51.378;6.736;2023-02-10T15:11:24;19.83;;;9.83;;
59998;SDS011;45859;51.378;6.736;2023-02-10T15:14:24;34.30;;;23.70;;
59998;SDS011;45859;51.378;6.736;2023-02-10T15:16:52;28.50;;;22.08;;
59998;SDS011;45859;51.378;6.736;2023-02-10T15:19:22;25.10;;;11.48;;
59998;SDS011;45859;51.378;6.736;2023-02-10T15:21:48;32.27;;;23.13;;
59998;SDS011;45859;51.378;6.736;2023-02-10T15:26:50;25.50;;;9.53;;
59998;SDS011;45859;51.378;6.736;2023-02-10T15:29:16;32.57;;;23.23;;
59998;SDS011;45859;51.378;6.736;2023-02-10T15:31:50;24.27;;;12.37;;
59998;SDS011;45859;51.378;6.736;2023-02-10T15:34:27;20.40;;;11.27;;
59998;SDS011;45859;51.378;6.736;2023-02-10T15:36:58;25.33;;;11.57;;
59998;SDS011;45859;51.378;6.736;2023-02-10T15:44:29;23.20;;;9.70;;
59998;SDS011;45859;51.378;6.736;2023-02-10T15:49:53;20.67;;;10.33;;
59998;SDS011;45859;51.378;6.736;2023-02-10T15:54:47;21.47;;;9.37;;
59998;SDS011;45859;51.378;6.736;2023-02-10T15:57:16;19.37;;;9.23;;
59998;SDS011;45859;51.378;6.736;2023-02-10T15:59:43;18.77;;;9.37;;
59998;SDS011;45859;51.378;6.736;2023-02-10T16:02:12;23.43;;;9.77;;
59998;SDS011;45859;51.378;6.736;2023-02-10T16:04:38;26.93;;;18.60;;
59998;SDS011;45859;51.378;6.736;2023-02-10T16:07:04;14.80;;;6.17;;
59998;SDS011;45859;51.378;6.736;2023-02-10T16:09:31;12.37;;;5.60;;
59998;SDS011;45859;51.378;6.736;2023-02-10T16:11:58;21.07;;;8.67;;
59998;SDS011;45859;51.378;6.736;2023-02-10T16:14:25;21.03;;;8.73;;
59998;SDS011;45859;51.378;6.736;2023-02-10T16:16:52;23.63;;;9.80;;
59998;SDS011;45859;51.378;6.736;2023-02-10T16:19:21;13.93;;;7.30;;
59998;SDS011;45859;51.378;6.736;2023-02-10T16:21:49;22.00;;;9.30;;
59998;SDS011;45859;51.378;6.736;2023-02-10T16:24:20;21.60;;;9.00;;
59998;SDS011;45859;51.378;6.736;2023-02-10T16:26:47;22.37;;;10.30;;
59998;SDS011;45859;51.378;6.736;2023-02-10T16:29:14;30.90;;;10.80;;
59998;SDS011;45859;51.378;6.736;2023-02-10T16:31:41;22.40;;;9.23;;
59998;SDS011;45859;51.378;6.736;2023-02-10T16:34:07;19.83;;;9.37;;
59998;SDS011;45859;51.378;6.736;2023-02-10T16:36:33;26.10;;;17.77;;
59998;SDS011;45859;51.378;6.736;2023-02-10T16:38:59;23.67;;;9.57;;
59998;SDS011;45859;51.378;6.736;2023-02-10T16:41:25;13.90;;;7.50;;
59998;SDS011;45859;51.378;6.736;2023-02-10T16:43:51;22.87;;;9.43;;
59998;SDS011;45859;51.378;6.736;2023-02-10T16:46:17;15.93;;;7.50;;
59998;SDS011;45859;51.378;6.736;2023-02-10T16:48:44;21.43;;;9.90;;
59998;SDS011;45859;51.378;6.736;2023-02-10T16:51:09;23.47;;;10.90;;
59998;SDS011;45859;51.378;6.736;2023-02-10T16:53:35;29.93;;;12.20;;
59998;SDS011;45859;51.378;6.736;2023-02-10T16:56:01;25.93;;;10.77;;
59998;SDS011;45859;51.378;6.736;2023-02-10T16:58:27;22.23;;;11.13;;
59998;SDS011;45859;51.378;6.736;2023-02-10T17:00:52;21.77;;;9.20;;
59998;SDS011;45859;51.378;6.736;2023-02-10T17:03:18;25.60;;;10.73;;
59998;SDS011;45859;51.378;6.736;2023-02-10T17:05:44;25.53;;;10.23;;
59998;SDS011;45859;51.378;6.736;2023-02-10T17:08:11;29.53;;;11.70;;